Data for 10/24/2018

Time Sea-Level Adjusted Pressure Absolute Pressure Temperature Relative Humidity Dew Point   
(mb) (inHg) (mb) (inHg) (C) (F) (%) (C) (F)
00:05 1018 30.06 847 25.01 5.7 42.2 67 0 32
00:10 1018 30.06 847 25.01 6 42.9 65 0.1 32.1
00:15 1018 30.06 847 25.01 6.1 43 65 0.1 32.1
00:20 1018 30.06 847 25.01 6.1 42.9 65 -0 32
00:25 1018 30.06 847 25.01 5.9 42.7 66 0 32
00:30 1018 30.06 847 25.01 5.8 42.5 66 -0.1 31.8
00:35 1018 30.06 847 25.01 5.8 42.5 66 -0 31.9
00:40 1018 30.06 847 25.01 5.6 42 68 0 32.1
00:45 1018 30.06 847 25.01 5.5 42 67 -0.1 31.8
00:50 1018 30.06 847 25.01 5.9 42.5 65 -0.3 31.5
00:55 1018 30.06 847 25.01 6.1 43 64 -0.2 31.6
01:00 1018 30.06 847 25.01 6.3 43.4 63 -0.1 31.8
01:05 1018 30.06 847 25.01 6.2 43.1 64 -0.1 31.8
01:10 1018 30.06 847 25.01 6 42.9 65 -0 31.9
01:15 1018 30.06 847 25.01 5.7 42.2 66 -0.2 31.7
01:20 1018 30.06 847 25.01 5.5 42 66 -0.2 31.6
01:25 1018 30.06 847 25.01 5.4 41.8 66 -0.3 31.4
01:30 1018 30.06 847 25.01 5.5 41.9 66 -0.3 31.5
01:35 1018 30.06 847 25.01 5.5 41.9 66 -0.4 31.4
01:40 1018 30.06 847 25.01 5.4 41.7 67 -0.2 31.6
01:45 1018 30.06 847 25.01 5.2 41.3 67 -0.4 31.3
01:50 1018 30.06 847 25.01 5.2 41.4 67 -0.3 31.4
01:55 1018 30.06 847 25.01 5.1 41.3 69 -0.1 31.9
02:00 1018 30.06 847 25.01 5.6 42 66 -0.2 31.6
02:05 1018 30.06 847 25.01 5.6 42 67 0 32.1
02:10 1018 30.06 847 25.01 5 41 70 -0.1 31.9
02:15 1018 30.06 847 25.01 4.7 40.4 70 -0.3 31.5
02:20 1018 30.06 847 25.01 4.9 40.8 69 -0.3 31.5
02:25 1018 30.06 847 25.01 5.4 41.7 66 -0.4 31.3
02:30 1018 30.06 847 25.01 5.7 42.2 66 -0.2 31.6
02:35 1018 30.06 847 25.01 6 42.7 65 -0.2 31.7
02:40 1018 30.06 847 25.01 6 42.8 65 -0.1 31.8
02:45 1018 30.06 847 25.01 6 42.7 65 -0.2 31.7
02:50 1018 30.06 847 25.01 6 42.7 65 -0.2 31.6
02:55 1018 30.06 847 25.01 6 42.7 65 -0.1 31.8
03:00 1018 30.06 847 25.01 5.9 42.7 65 -0.1 31.8
03:05 1018 30.06 847 25.01 5.7 42.3 66 -0.1 31.9
03:10 1018 30.06 847 25.01 5.4 41.7 67 -0.1 31.7
03:15 1018 30.06 847 25.01 5.4 41.7 66 -0.3 31.4
03:20 1018 30.06 847 25.01 6.1 42.9 62 -0.7 30.7
03:25 1018 30.06 847 25.01 6.4 43.5 61 -0.5 31.1
03:30 1018 30.06 847 25.01 6.4 43.5 61 -0.5 31
03:35 1018 30.06 847 25.01 6.4 43.5 62 -0.4 31.2
03:40 1018 30.06 847 25.01 6.1 43 62 -0.6 30.8
03:45 1018 30.06 847 25.01 6.3 43.3 61 -0.7 30.8
03:50 1018 30.06 847 25.01 6.2 43.2 63 -0.3 31.5
03:55 1018 30.06 847 25.01 6.2 43.1 63 -0.4 31.3
04:00 1018 30.06 847 25.01 6.2 43.1 63 -0.3 31.4
04:05 1018 30.06 847 25.01 6.1 42.9 63 -0.4 31.3
04:10 1018 30.06 847 25.01 6.1 43 64 -0.3 31.5
04:15 1018 30.06 847 25.01 6.1 42.9 63 -0.3 31.4
04:20 1018 30.06 847 25.01 5.3 41.6 68 -0.1 31.8
04:25 1018 30.06 847 25.01 4.9 40.8 68 -0.5 31.1
04:30 1018 30.06 847 25.01 5.3 41.5 67 -0.4 31.4
04:35 1018 30.06 847 25.01 5.6 42.1 64 -0.7 30.7
04:40 1018 30.06 847 25.01 6 42.8 64 -0.3 31.5
04:45 1018 30.06 847 25.01 5.9 42.5 65 -0.3 31.5
04:50 1018 30.06 847 25.01 5.7 42.3 66 -0.2 31.7
04:55 1018 30.06 847 25.01 5.7 42.3 66 -0.2 31.6
05:00 1018 30.06 847 25.01 5.7 42.3 66 -0.1 31.8
05:05 1018 30.06 848 25.04 5.7 42.2 66 -0.1 31.8
05:10 1018 30.06 848 25.04 5.8 42.4 66 -0.1 31.9
05:15 1018 30.06 848 25.04 5.8 42.5 66 -0.1 31.9
05:20 1018 30.06 848 25.04 5.8 42.5 66 0 32
05:25 1018 30.06 848 25.04 5.7 42.3 67 0 32
05:30 1018 30.06 848 25.04 5.6 42.2 67 0 32
05:35 1018 30.06 848 25.04 5.7 42.2 67 -0 32
05:40 1018 30.06 848 25.04 5.8 42.5 66 -0.1 31.8
05:45 1018 30.06 848 25.04 6.1 43 65 0 32.1
05:50 1018 30.06 848 25.04 6.1 43 65 0.1 32.3
05:55 1018 30.06 848 25.04 5.9 42.5 67 0.2 32.3
06:00 1018 30.06 848 25.04 5.9 42.5 66 0.1 32.1
06:05 1018 30.06 848 25.04 6.2 43.1 65 0.1 32.1
06:10 1018 30.06 848 25.04 6.3 43.3 65 0.2 32.4
06:15 1018 30.06 848 25.04 6.2 43.2 65 0.2 32.4
06:20 1018 30.06 848 25.04 6.2 43.1 65 0.1 32.2
06:25 1019 30.09 848 25.04 6.4 43.5 64 0.1 32.3
06:30 1019 30.09 848 25.04 6.4 43.6 65 0.3 32.5
06:35 1019 30.09 848 25.04 6.3 43.3 65 0.3 32.5
06:40 1019 30.09 848 25.04 6.1 43 66 0.2 32.4
06:45 1019 30.09 848 25.04 6 42.7 66 0.2 32.3
06:50 1019 30.09 848 25.04 5.9 42.7 66 0.1 32.3
06:55 1019 30.09 848 25.04 5.9 42.6 67 0.2 32.3
07:00 1019 30.09 848 25.04 5.8 42.4 68 0.3 32.5
07:05 1019 30.09 848 25.04 5.7 42.3 68 0.4 32.7
07:10 1019 30.09 848 25.04 5.7 42.3 68 0.4 32.7
07:15 1019 30.09 848 25.04 5.8 42.5 68 0.3 32.6
07:20 1019 30.09 848 25.04 6 42.8 67 0.3 32.6
07:25 1019 30.09 848 25.04 6.1 42.9 67 0.4 32.7
07:30 1019 30.09 848 25.04 6.1 43 66 0.3 32.6
07:35 1019 30.09 848 25.04 6.3 43.3 66 0.4 32.8
07:40 1019 30.09 848 25.04 6.4 43.5 66 0.4 32.7
07:45 1019 30.09 848 25.04 6.6 43.9 65 0.6 33
07:50 1019 30.09 848 25.04 6.9 44.4 65 0.7 33.2
07:55 1019 30.09 848 25.04 7.1 44.7 64 0.8 33.5
08:00 1019 30.09 848 25.04 7.4 45.2 64 0.9 33.7
08:05 1019 30.09 848 25.04 7.5 45.6 64 1.2 34.1
08:10 1019 30.09 848 25.04 7.7 45.9 63 1.2 34.2
08:15 1019 30.09 848 25.04 7.9 46.2 63 1.3 34.4
08:20 1019 30.09 849 25.07 8.2 46.7 62 1.2 34.2
08:25 1019 30.09 849 25.07 8.6 47.4 62 1.7 35
08:30 1019 30.09 849 25.07 8.7 47.6 60 1.4 34.6
08:35 1019 30.09 849 25.07 8.9 47.9 60 1.7 35
08:40 1019 30.09 849 25.07 8.7 47.6 63 2 35.6
08:45 1019 30.09 848 25.04 8.6 47.6 64 2.3 36.1
08:50 1019 30.09 848 25.04 8.2 46.8 66 2.3 36.2
08:55 1019 30.09 848 25.04 8.1 46.5 66 2.2 36
09:00 1019 30.09 848 25.04 8.1 46.6 69 2.9 37.2
09:05 1019 30.09 848 25.04 8.2 46.7 67 2.5 36.5
09:10 1019 30.09 848 25.04 8.2 46.8 67 2.4 36.3
09:15 1019 30.09 848 25.04 8.2 46.7 67 2.6 36.6
09:20 1019 30.09 848 25.04 8.4 47.1 67 2.7 36.8
09:25 1019 30.09 848 25.04 8.4 47.1 69 3 37.4
09:30 1019 30.09 849 25.07 8.6 47.4 68 3.1 37.5
09:35 1019 30.09 848 25.04 8.9 48 67 3.1 37.7
09:40 1019 30.09 848 25.04 9.2 48.5 65 2.9 37.3
09:45 1019 30.09 848 25.04 9.5 49 64 3 37.5
09:50 1019 30.09 848 25.04 9.7 49.5 64 3.2 37.8
09:55 1019 30.09 848 25.04 10.1 50.2 63 3.4 38.2
10:00 1019 30.09 848 25.04 11 51.8 56 2.7 36.9
10:05 1019 30.09 848 25.04 11.7 53 55 2.9 37.2
10:10 1019 30.09 848 25.04 12.3 54.1 55 3.5 38.3
10:15 1019 30.09 848 25.04 12.5 54.5 53 3.3 37.9
10:20 1019 30.09 848 25.04 13.1 55.5 51 3.2 37.7
10:25 1019 30.09 848 25.04 13.5 56.3 49 3.2 37.7
10:30 1019 30.09 848 25.04 13.5 56.4 50 3.5 38.3
10:35 1019 30.09 848 25.04 13.5 56.3 47 2.6 36.7
10:40 1019 30.09 848 25.04 13.9 57 47 2.8 37
10:45 1019 30.09 848 25.04 14 57.1 45 2.2 35.9
10:50 1019 30.09 848 25.04 15 59 43 2.5 36.5
10:55 1019 30.09 848 25.04 14.5 58.2 44 2.5 36.4
11:00 1019 30.09 848 25.04 14.7 58.4 45 3.1 37.6
11:05 1019 30.09 848 25.04 14.7 58.5 46 3.4 38.2
11:10 1019 30.09 848 25.04 14.4 57.9 44 2.5 36.5
11:15 1019 30.09 848 25.04 14.6 58.3 44 2.6 36.7
11:20 1019 30.09 848 25.04 15.1 59.2 43 2.6 36.8
11:25 1019 30.09 848 25.04 15.4 59.7 41 2.4 36.3
11:30 1019 30.09 848 25.04 15.1 59.1 43 2.5 36.5
11:35 1019 30.09 848 25.04 15.3 59.5 43 2.8 37
11:40 1019 30.09 848 25.04 15 58.9 42 2.2 36
11:45 1019 30.09 848 25.04 15.5 60 40 2.3 36.1
11:50 1019 30.09 848 25.04 15.9 60.5 40 2.4 36.2
11:55 1019 30.09 848 25.04 15.6 60.1 39 1.6 35
12:00 1018 30.06 848 25.04 15.4 59.7 41 2.3 36.2
12:05 1018 30.06 848 25.04 15 59 41 2.1 35.8
12:10 1018 30.06 848 25.04 15.5 59.8 40 2.2 35.9
12:15 1018 30.06 847 25.01 15.8 60.4 39 2 35.6
12:20 1018 30.06 847 25.01 16.3 61.4 38 1.9 35.5
12:25 1018 30.06 847 25.01 16.6 61.9 39 2.5 36.6
12:30 1018 30.06 847 25.01 16.1 60.9 39 2.2 35.9
12:35 1018 30.06 847 25.01 16.1 60.9 39 2.3 36.1
12:40 1018 30.06 847 25.01 15.9 60.7 40 2.5 36.5
12:45 1018 30.06 847 25.01 15.4 59.8 39 1.5 34.7
12:50 1018 30.06 847 25.01 16.3 61.3 40 2.9 37.2
12:55 1018 30.06 847 25.01 15.9 60.7 40 2.5 36.6
13:00 1018 30.06 847 25.01 15.4 59.6 41 2.4 36.4
13:05 1018 30.06 847 25.01 15.5 59.9 42 2.8 37
13:10 1018 30.06 847 25.01 15.1 59.2 42 2.3 36.1
13:15 1018 30.06 847 25.01 15.4 59.7 39 1.8 35.2
13:20 1018 30.06 847 25.01 15.6 60.2 39 1.8 35.2
13:25 1018 30.06 847 25.01 16.8 62.2 35 1.2 34.2
13:30 1018 30.06 847 25.01 17.2 62.9 34 1.2 34.1
13:35 1017 30.03 847 25.01 16.9 62.5 34 1.3 34.3
13:40 1017 30.03 847 25.01 17.3 63.2 33 0.8 33.5
13:45 1017 30.03 847 25.01 17.7 63.8 32 0.7 33.3
13:50 1017 30.03 847 25.01 18 64.3 32 1 33.7
13:55 1017 30.03 847 25.01 17.6 63.7 31 0.6 33.2
14:00 1017 30.03 847 25.01 17.9 64.2 32 1 33.7
14:05 1017 30.03 846 24.98 17.8 64 32 1.1 33.9
14:10 1017 30.03 846 24.98 16.3 61.3 32 -0.2 31.7
14:15 1017 30.03 846 24.98 17.3 63.1 31 0 32
14:20 1017 30.03 846 24.98 17.8 64 30 0.2 32.4
14:25 1017 30.03 846 24.98 18 64.5 30 0.2 32.4
14:30 1017 30.03 846 24.98 18.2 64.8 29 0 32
14:35 1017 30.03 846 24.98 18 64.4 30 0.2 32.3
14:40 1017 30.03 846 24.98 16.9 62.4 32 0.4 32.7
14:45 1017 30.03 846 24.98 16.2 61.1 33 -0 31.9
14:50 1017 30.03 846 24.98 17 62.7 31 0 32.1
14:55 1017 30.03 846 24.98 17.8 64 30 0.1 32.1
15:00 1017 30.03 846 24.98 18 64.3 31 0.6 33.1
15:05 1017 30.03 846 24.98 18 64.3 31 0.5 32.9
15:10 1017 30.03 846 24.98 17.6 63.6 32 0.6 33.1
15:15 1017 30.03 846 24.98 17 62.7 32 0.3 32.6
15:20 1017 30.03 846 24.98 17.1 62.9 33 0.9 33.5
15:25 1017 30.03 846 24.98 16.5 61.7 33 0.3 32.5
15:30 1017 30.03 846 24.98 16.4 61.5 33 0.3 32.5
15:35 1017 30.03 846 24.98 16.4 61.5 32 -0.1 31.8
15:40 1017 30.03 846 24.98 16.1 61 34 0.3 32.5
15:45 1017 30.03 846 24.98 15.8 60.5 35 0.5 32.9
15:50 1017 30.03 846 24.98 15.2 59.4 36 0.3 32.5
15:55 1017 30.03 846 24.98 15.1 59.2 36 0.2 32.4
16:00 1017 30.03 846 24.98 14.9 58.9 36 0.3 32.5
16:05 1017 30.03 846 24.98 15 59.1 35 -0.1 31.7
16:10 1017 30.03 846 24.98 15.6 60.1 33 -0.3 31.4
16:15 1017 30.03 846 24.98 16.1 61 33 0.1 32.1
16:20 1017 30.03 846 24.98 15.9 60.7 34 0.1 32.1
16:25 1017 30.03 846 24.98 15.9 60.5 34 0.1 32.1
16:30 1017 30.03 846 24.98 15.4 59.7 35 0.2 32.3
16:35 1017 30.03 846 24.98 15.5 59.8 34 -0.3 31.4
16:40 1017 30.03 846 24.98 15.8 60.4 34 -0 31.9
16:45 1017 30.03 846 24.98 15.7 60.3 34 0.1 32.2
16:50 1017 30.03 846 24.98 15.4 59.7 35 0.1 32.2
16:55 1017 30.03 846 24.98 15.2 59.3 36 0.2 32.3
17:00 1017 30.03 846 24.98 15 59 36 0.1 32.2
17:05 1017 30.03 846 24.98 14.7 58.5 37 0.2 32.3
17:10 1017 30.03 846 24.98 14.6 58.3 37 0.1 32.2
17:15 1017 30.03 846 24.98 14.5 58.1 37 0.1 32.3
17:20 1017 30.03 846 24.98 14.4 57.8 39 0.8 33.4
17:25 1017 30.03 846 24.98 13.8 56.8 44 1.8 35.3
17:30 1017 30.03 846 24.98 13 55.5 47 2.1 35.8
17:35 1017 30.03 846 24.98 12.4 54.3 49 2 35.6
17:40 1017 30.03 846 24.98 12.1 53.8 50 1.9 35.5
17:45 1017 30.03 846 24.98 11.9 53.4 50 1.9 35.4
17:50 1016 30 846 24.98 11.8 53.2 50 1.9 35.3
17:55 1016 30 846 24.98 11.5 52.8 52 2 35.5
18:00 1016 30 846 24.98 11.3 52.3 52 1.9 35.4
18:05 1016 30 846 24.98 11 51.9 53 1.8 35.2
18:10 1017 30.03 846 24.98 10.9 51.6 52 1.5 34.7
18:15 1017 30.03 846 24.98 10.9 51.6 52 1.5 34.7
18:20 1017 30.03 846 24.98 10.8 51.4 52 1.3 34.4
18:25 1017 30.03 846 24.98 10.8 51.4 52 1.4 34.5
18:30 1017 30.03 846 24.98 10.7 51.3 52 1.4 34.5
18:35 1017 30.03 846 24.98 10.6 51.1 52 1.3 34.3
18:40 1017 30.03 846 24.98 10.4 50.8 53 1.2 34.2
18:45 1017 30.03 846 24.98 10.4 50.6 52 0.9 33.7
18:50 1017 30.03 846 24.98 10.4 50.7 52 0.9 33.6
18:55 1017 30.03 846 24.98 10.4 50.7 50 0.6 33.1
19:00 1017 30.03 846 24.98 10.3 50.6 51 0.6 33.1
19:05 1017 30.03 846 24.98 10.2 50.4 51 0.6 33.2
19:10 1017 30.03 846 24.98 10.1 50.1 52 0.7 33.2
19:15 1017 30.03 846 24.98 10 50 52 0.6 33
19:20 1017 30.03 846 24.98 10 50 52 0.5 32.9
19:25 1017 30.03 846 24.98 10 49.9 52 0.6 33.1
19:30 1017 30.03 846 24.98 9.9 49.9 51 0.4 32.7
19:35 1017 30.03 846 24.98 10 50 51 0.3 32.5
19:40 1017 30.03 846 24.98 10 50 51 0.2 32.4
19:45 1017 30.03 846 24.98 10 49.9 50 0.2 32.3
19:50 1017 30.03 846 24.98 10 50.1 49 -0.1 31.8
19:55 1017 30.03 846 24.98 10.2 50.4 48 -0.2 31.6
20:00 1017 30.03 846 24.98 10.4 50.8 45 -0.9 30.4
20:05 1017 30.03 846 24.98 10.9 51.6 45 -0.7 30.8
20:10 1017 30.03 846 24.98 11 51.8 44 -0.7 30.7
20:15 1017 30.03 846 24.98 11.1 52 45 -0.3 31.4
20:20 1017 30.03 846 24.98 10.9 51.5 46 -0.3 31.5
20:25 1017 30.03 846 24.98 10.7 51.3 46 -0.3 31.5
20:30 1017 30.03 846 24.98 10.8 51.4 47 -0 31.9
20:35 1017 30.03 846 24.98 10.5 51 48 0 32
20:40 1017 30.03 846 24.98 10.8 51.4 43 -1.2 29.8
20:45 1017 30.03 846 24.98 11.6 52.9 40 -1.5 29.4
20:50 1017 30.03 846 24.98 12 53.7 39 -1.4 29.4
20:55 1017 30.03 846 24.98 12 53.6 40 -1 30.1
21:00 1017 30.03 847 25.01 11.7 53 43 -0.3 31.5
21:05 1017 30.03 847 25.01 11 51.9 43 -1 30.2
21:10 1017 30.03 847 25.01 11.4 52.5 42 -0.8 30.5
21:15 1017 30.03 847 25.01 11.2 52.2 42 -1 30.1
21:20 1017 30.03 847 25.01 11.2 52.2 42 -1.1 30.1
21:25 1017 30.03 847 25.01 11.2 52.2 42 -1.1 30
21:30 1017 30.03 847 25.01 11.2 52.1 42 -1.1 30
21:35 1018 30.06 847 25.01 11.2 52.2 42 -1.3 29.7
21:40 1018 30.06 847 25.01 11.4 52.5 41 -1.2 29.9
21:45 1018 30.06 847 25.01 11.5 52.6 41 -1.1 30
21:50 1018 30.06 847 25.01 11.2 52.2 45 -0.2 31.6
21:55 1018 30.06 847 25.01 10.4 50.6 48 -0.2 31.7
22:00 1018 30.06 847 25.01 10 49.9 48 -0.6 30.9
22:05 1018 30.06 847 25.01 10.1 50.2 46 -0.9 30.5
22:10 1018 30.06 847 25.01 10.3 50.6 46 -0.7 30.7
22:15 1018 30.06 847 25.01 10.3 50.5 47 -0.5 31.2
22:20 1018 30.06 847 25.01 10 50.1 47 -0.6 30.9
22:25 1018 30.06 847 25.01 9.8 49.7 48 -0.7 30.7
22:30 1018 30.06 847 25.01 9.8 49.6 48 -0.7 30.8
22:35 1018 30.06 847 25.01 10 49.9 48 -0.7 30.8
22:40 1018 30.06 847 25.01 9.9 49.8 50 -0.1 31.8
22:45 1018 30.06 847 25.01 9.3 48.7 52 -0.1 31.7
22:50 1018 30.06 847 25.01 9.1 48.4 51 -0.4 31.3
22:55 1018 30.06 847 25.01 9.4 49 50 -0.4 31.3
23:00 1018 30.06 847 25.01 9.6 49.2 49 -0.5 31.1
23:05 1018 30.06 847 25.01 9.6 49.3 50 -0.2 31.6
23:10 1018 30.06 847 25.01 9.5 49 52 0.1 32.2
23:15 1018 30.06 847 25.01 9.2 48.6 52 -0.2 31.6
23:20 1018 30.06 847 25.01 9.3 48.7 51 -0.3 31.5
23:25 1018 30.06 847 25.01 9.3 48.8 52 0.1 32.2
23:30 1018 30.06 847 25.01 8.8 47.9 54 0 32
23:35 1018 30.06 847 25.01 8.7 47.7 54 -0.1 31.7
23:40 1018 30.06 847 25.01 8.8 47.8 54 0.1 32.1
23:45 1018 30.06 847 25.01 8.3 47 56 -0 31.9
23:50 1018 30.06 847 25.01 8.2 46.8 56 -0 31.9
23:55 1018 30.06 847 25.01 8.1 46.7 56 -0.1 31.8
24:00 1018 30.06 847 25.01 8.4 47 55 -0.2 31.6